createdAt,value
2019-05-18T00:00:13.352Z,15.02
2019-05-18T00:01:13.350Z,15.02
2019-05-18T00:02:13.331Z,15.02
2019-05-18T00:03:13.320Z,15.11
2019-05-18T00:04:13.309Z,15.29
2019-05-18T00:05:13.348Z,15.26
2019-05-18T00:06:13.287Z,15.38
2019-05-18T00:07:13.276Z,15.26
2019-05-18T00:08:13.270Z,15.18
2019-05-18T00:09:13.259Z,15.10
2019-05-18T00:10:13.243Z,15.29
2019-05-18T00:11:13.381Z,15.37
2019-05-18T00:12:13.222Z,15.52
2019-05-18T00:13:13.213Z,15.59
2019-05-18T00:14:13.201Z,15.52
2019-05-18T00:15:13.189Z,15.78
2019-05-18T00:16:13.177Z,16.15
2019-05-18T00:17:24.868Z,15.86
2019-05-18T00:18:37.972Z,15.57
2019-05-18T00:19:37.967Z,15.34
2019-05-18T00:20:37.950Z,15.11
2019-05-18T00:21:37.939Z,14.92
2019-05-18T00:22:37.983Z,14.87
2019-05-18T00:23:37.917Z,14.86
2019-05-18T00:24:37.907Z,14.94
2019-05-18T00:25:37.895Z,15.00
2019-05-18T00:26:37.887Z,14.92
2019-05-18T00:27:37.872Z,14.94
2019-05-18T00:28:38.013Z,15.23
2019-05-18T00:29:37.851Z,16.21
2019-05-18T00:30:37.839Z,17.10
2019-05-18T00:31:37.831Z,17.30
2019-05-18T00:32:37.818Z,17.29
2019-05-18T00:33:37.808Z,16.84
2019-05-18T00:34:37.846Z,16.40
2019-05-18T00:35:37.792Z,15.72
2019-05-18T00:36:37.791Z,15.45
2019-05-18T00:37:37.784Z,15.12
2019-05-18T00:38:37.791Z,15.02
2019-05-18T00:39:37.744Z,14.83
2019-05-18T00:40:37.787Z,14.72
2019-05-18T00:41:37.723Z,14.65
2019-05-18T00:42:37.717Z,14.67
2019-05-18T00:43:37.704Z,14.61
2019-05-18T00:44:37.690Z,14.64
2019-05-18T00:45:37.681Z,14.62
2019-05-18T00:46:37.821Z,14.71
2019-05-18T00:47:41.395Z,14.72
2019-05-18T00:48:37.651Z,14.68
2019-05-18T00:49:37.637Z,14.65
2019-05-18T00:50:37.626Z,14.67
2019-05-18T00:51:37.719Z,14.69
2019-05-18T00:52:37.609Z,14.71
2019-05-18T00:53:37.595Z,14.80
2019-05-18T00:54:37.584Z,14.72
2019-05-18T00:55:37.574Z,14.75
2019-05-18T00:56:37.669Z,14.79
2019-05-18T00:57:37.550Z,14.85
2019-05-18T00:58:37.543Z,14.82
2019-05-18T00:59:37.531Z,14.89
2019-05-18T01:00:37.531Z,14.94
2019-05-18T01:01:37.508Z,15.10
2019-05-18T01:02:37.648Z,15.96
2019-05-18T01:03:37.488Z,16.88
2019-05-18T01:04:37.487Z,17.26
2019-05-18T01:05:38.272Z,17.59
2019-05-18T01:06:37.455Z,17.63
2019-05-18T01:07:37.444Z,17.53
2019-05-18T01:08:37.488Z,17.30
2019-05-18T01:09:37.423Z,16.98
2019-05-18T01:10:37.413Z,16.90
2019-05-18T01:11:37.400Z,16.73
2019-05-18T01:12:37.390Z,16.67
2019-05-18T01:13:37.375Z,16.49
2019-05-18T01:14:37.467Z,16.47
2019-05-18T01:15:37.357Z,16.43
2019-05-18T01:16:37.347Z,16.37
2019-05-18T01:17:37.380Z,16.55
2019-05-18T01:18:37.324Z,17.20
2019-05-18T01:19:37.312Z,18.30
2019-05-18T01:20:37.454Z,19.16
2019-05-18T01:21:37.291Z,19.80
2019-05-18T01:22:37.284Z,20.20
2019-05-18T01:23:37.270Z,20.76
2019-05-18T01:24:37.258Z,21.35
2019-05-18T01:25:37.254Z,21.72
2019-05-18T01:26:37.287Z,21.64
2019-05-18T01:27:37.229Z,21.54
2019-05-18T01:28:37.217Z,21.42
2019-05-18T01:29:37.234Z,21.17
2019-05-18T01:30:37.196Z,21.19
2019-05-18T01:31:37.186Z,21.29
2019-05-18T01:32:37.223Z,21.24
2019-05-18T01:33:37.161Z,21.20
2019-05-18T01:34:37.154Z,21.59
2019-05-18T01:35:37.139Z,22.01
2019-05-18T01:36:37.129Z,22.55
2019-05-18T01:37:37.117Z,22.97
2019-05-18T01:38:37.257Z,23.52
2019-05-18T01:39:37.110Z,23.81
2019-05-18T01:40:37.087Z,24.13
2019-05-18T01:41:37.073Z,24.59
2019-05-18T01:42:37.065Z,25.01
2019-05-18T01:43:37.055Z,25.50
2019-05-18T01:44:37.094Z,25.74
2019-05-18T01:45:37.031Z,26.11
2019-05-18T01:46:37.022Z,26.64
2019-05-18T01:47:37.009Z,27.10
2019-05-18T01:48:36.998Z,27.43
2019-05-18T01:49:36.992Z,27.61
2019-05-18T01:50:37.028Z,27.76
2019-05-18T01:51:36.967Z,27.84
2019-05-18T01:52:36.956Z,27.87
2019-05-18T01:53:36.946Z,28.03
2019-05-18T01:54:36.936Z,28.06
2019-05-18T01:55:36.923Z,28.22
2019-05-18T01:56:36.969Z,28.31
2019-05-18T01:57:36.910Z,28.22
2019-05-18T01:58:36.895Z,27.60
2019-05-18T01:59:36.886Z,27.31
2019-05-18T02:00:36.874Z,27.32
2019-05-18T02:01:36.864Z,26.94
2019-05-18T02:02:36.899Z,27.06
2019-05-18T02:03:36.843Z,27.36
2019-05-18T02:04:36.830Z,27.78
2019-05-18T02:05:36.822Z,28.15
2019-05-18T02:06:36.812Z,28.47
2019-05-18T02:07:36.800Z,28.78
2019-05-18T02:08:36.838Z,28.95
2019-05-18T02:09:36.779Z,28.97
2019-05-18T02:10:36.770Z,29.00
2019-05-18T02:11:36.757Z,28.97
2019-05-18T02:12:36.749Z,29.03
2019-05-18T02:13:36.735Z,28.97
2019-05-18T02:14:36.775Z,28.95
2019-05-18T02:15:36.718Z,28.95
2019-05-18T02:16:36.706Z,28.87
2019-05-18T02:17:36.697Z,28.91
2019-05-18T02:18:36.682Z,28.84
2019-05-18T02:19:36.671Z,28.99
2019-05-18T02:20:36.714Z,28.95
2019-05-18T02:21:36.658Z,28.90
2019-05-18T02:22:36.641Z,28.58
2019-05-18T02:23:36.634Z,28.22
2019-05-18T02:24:36.621Z,27.93
2019-05-18T02:25:36.762Z,27.73
2019-05-18T02:26:36.601Z,27.56
2019-05-18T02:27:36.591Z,27.50
2019-05-18T02:28:36.580Z,27.43
2019-05-18T02:29:36.570Z,27.78
2019-05-18T02:30:36.558Z,27.93
2019-05-18T02:31:36.602Z,28.36
2019-05-18T02:32:36.562Z,28.54
2019-05-18T02:33:36.534Z,28.20
2019-05-18T02:34:36.521Z,28.08
2019-05-18T02:35:36.511Z,27.97
2019-05-18T02:36:36.496Z,28.09
2019-05-18T02:39:36.514Z,28.36
2019-05-18T02:40:36.455Z,28.21
2019-05-18T02:41:36.442Z,28.10
2019-05-18T02:42:36.435Z,28.05
2019-05-18T02:43:36.421Z,27.75
2019-05-18T02:44:36.412Z,27.38
2019-05-18T02:45:36.648Z,27.01
2019-05-18T02:46:36.391Z,26.99
2019-05-18T02:47:36.386Z,26.79
2019-05-18T02:48:48.400Z,26.56
2019-05-18T02:50:01.172Z,26.35
2019-05-18T02:51:01.209Z,26.17
2019-05-18T02:52:01.151Z,26.09
2019-05-18T02:53:01.150Z,25.91
2019-05-18T02:54:01.128Z,26.04
2019-05-18T02:55:01.116Z,25.94
2019-05-18T02:56:01.117Z,26.08
2019-05-18T02:57:01.147Z,26.39
2019-05-18T02:58:01.111Z,26.61
2019-05-18T02:59:01.082Z,26.80
2019-05-18T03:00:01.064Z,27.04
2019-05-18T03:01:01.056Z,26.78
2019-05-18T03:02:01.043Z,26.54
2019-05-18T03:03:01.284Z,26.39
2019-05-18T03:04:01.038Z,26.30
2019-05-18T03:05:01.018Z,25.98
2019-05-18T03:06:01.003Z,25.89
2019-05-18T03:07:00.991Z,25.77
2019-05-18T03:08:00.981Z,25.57
2019-05-18T03:09:01.073Z,25.64
2019-05-18T03:10:00.962Z,25.59
2019-05-18T03:11:00.962Z,25.59
2019-05-18T03:12:00.941Z,25.37
2019-05-18T03:13:00.935Z,25.19
2019-05-18T03:14:00.921Z,25.16
2019-05-18T03:15:00.960Z,25.00
2019-05-18T03:16:00.899Z,24.90
2019-05-18T03:17:00.886Z,24.68
2019-05-18T03:18:00.883Z,24.29
2019-05-18T03:19:08.157Z,24.10
2019-05-18T03:20:02.100Z,23.99
2019-05-18T03:21:00.849Z,24.02
2019-05-18T03:22:01.253Z,23.89
2019-05-18T03:23:00.827Z,23.97
2019-05-18T03:24:00.823Z,24.02
2019-05-18T03:25:00.813Z,24.02
2019-05-18T03:26:00.844Z,23.89
2019-05-18T03:27:00.790Z,23.67
2019-05-18T03:28:00.778Z,23.51
2019-05-18T03:29:00.763Z,23.33
2019-05-18T03:30:00.769Z,23.09
2019-05-18T03:31:00.743Z,22.78
2019-05-18T03:32:00.831Z,22.49
2019-05-18T03:33:00.735Z,22.24
2019-05-18T03:34:00.798Z,22.00
2019-05-18T03:35:00.727Z,21.82
2019-05-18T03:36:00.709Z,21.89
2019-05-18T03:37:00.675Z,21.69
2019-05-18T03:38:00.917Z,21.93
2019-05-18T03:39:00.656Z,22.26
2019-05-18T03:40:00.669Z,22.42
2019-05-18T03:41:00.636Z,22.75
2019-05-18T03:42:00.622Z,22.69
2019-05-18T03:43:00.622Z,22.55
2019-05-18T03:44:00.654Z,22.52
2019-05-18T03:45:00.589Z,22.52
2019-05-18T03:46:00.579Z,22.55
2019-05-18T03:47:00.569Z,22.38
2019-05-18T03:48:00.556Z,22.31
2019-05-18T03:49:00.546Z,22.36
2019-05-18T03:50:00.597Z,22.31
2019-05-18T03:51:00.524Z,22.38
2019-05-18T03:52:00.521Z,22.27
2019-05-18T03:53:00.504Z,22.01
2019-05-18T03:54:00.496Z,22.11
2019-05-18T03:55:00.498Z,21.83
2019-05-18T03:56:00.871Z,21.69
2019-05-18T03:57:00.464Z,21.41
2019-05-18T03:58:00.455Z,20.94
2019-05-18T03:59:00.441Z,20.55
2019-05-18T04:00:00.431Z,20.48
2019-05-18T04:01:00.423Z,20.21
2019-05-18T04:02:00.511Z,19.71
2019-05-18T04:03:00.416Z,19.41
2019-05-18T04:04:00.389Z,19.05
2019-05-18T04:05:00.378Z,18.52
2019-05-18T04:06:00.373Z,18.52
2019-05-18T04:07:00.356Z,18.74
2019-05-18T04:08:00.397Z,18.58
2019-05-18T04:09:00.338Z,18.49
2019-05-18T04:10:00.327Z,18.42
2019-05-18T04:11:00.314Z,18.23
2019-05-18T04:12:00.303Z,17.96
2019-05-18T04:13:00.295Z,17.90
2019-05-18T04:14:00.435Z,17.84
2019-05-18T04:15:00.275Z,17.69
2019-05-18T04:16:00.270Z,17.66
2019-05-18T04:17:00.251Z,17.57
2019-05-18T04:18:00.243Z,17.41
2019-05-18T04:19:00.245Z,17.32
2019-05-18T04:20:00.270Z,17.22
2019-05-18T04:21:00.207Z,17.07
2019-05-18T04:22:00.233Z,16.96
2019-05-18T04:23:00.184Z,16.99
2019-05-18T04:24:00.172Z,17.26
2019-05-18T04:25:00.168Z,17.30
2019-05-18T04:26:00.202Z,17.23
2019-05-18T04:27:00.141Z,17.13
2019-05-18T04:28:00.131Z,16.96
2019-05-18T04:29:00.119Z,16.88
2019-05-18T04:30:00.132Z,16.88
2019-05-18T04:31:00.099Z,17.07
2019-05-18T04:32:00.236Z,17.87
2019-05-18T04:33:00.078Z,18.91
2019-05-18T04:34:00.065Z,20.30
2019-05-18T04:35:00.059Z,20.79
2019-05-18T04:36:00.051Z,20.98
2019-05-18T04:37:00.039Z,21.00
2019-05-18T04:38:00.072Z,20.90
2019-05-18T04:39:00.012Z,20.80
2019-05-18T04:40:00.007Z,20.57
2019-05-18T04:40:59.991Z,19.78
2019-05-18T04:41:59.978Z,18.72
2019-05-18T04:42:59.971Z,17.99
2019-05-18T04:44:00.006Z,17.35
2019-05-18T04:44:59.947Z,17.38
2019-05-18T04:45:59.937Z,18.11
2019-05-18T04:46:59.935Z,18.98
2019-05-18T04:47:59.914Z,19.20
2019-05-18T04:48:59.906Z,19.12
2019-05-18T04:50:04.913Z,18.80
2019-05-18T04:50:59.883Z,18.61
2019-05-18T04:51:59.873Z,18.43
2019-05-18T04:52:59.861Z,18.39
2019-05-18T04:53:59.851Z,18.20
2019-05-18T04:54:59.842Z,18.40
2019-05-18T04:55:59.898Z,18.61
2019-05-18T04:56:59.820Z,18.55
2019-05-18T04:57:59.806Z,18.42
2019-05-18T04:58:59.800Z,18.01
2019-05-18T04:59:59.790Z,17.50
2019-05-18T05:00:59.785Z,17.08
2019-05-18T05:01:59.874Z,16.74
2019-05-18T05:02:59.752Z,16.34
2019-05-18T05:03:59.743Z,16.01
2019-05-18T05:04:59.733Z,15.78
2019-05-18T05:05:59.721Z,15.60
2019-05-18T05:07:59.760Z,15.64
2019-05-18T05:08:59.688Z,15.99
2019-05-18T05:09:59.677Z,15.86
2019-05-18T05:10:59.668Z,15.94
2019-05-18T05:11:59.662Z,16.37
2019-05-18T05:12:59.647Z,16.73
2019-05-18T05:13:59.736Z,17.38
2019-05-18T05:14:59.625Z,17.77
2019-05-18T05:15:59.615Z,18.40
2019-05-18T05:16:59.603Z,18.17
2019-05-18T05:17:59.594Z,17.86
2019-05-18T05:18:59.581Z,17.10
2019-05-18T05:20:59.711Z,15.72
2019-05-18T05:21:59.550Z,15.51
2019-05-18T05:22:59.584Z,15.32
2019-05-18T05:23:59.527Z,15.48
2019-05-18T05:24:59.517Z,15.30
2019-05-18T05:25:59.507Z,15.59
2019-05-18T05:26:59.546Z,15.51
2019-05-18T05:27:59.486Z,15.07
2019-05-18T05:28:59.473Z,15.10
2019-05-18T05:29:59.464Z,15.38
2019-05-18T05:30:59.453Z,15.88
2019-05-18T05:31:59.444Z,16.84
2019-05-18T05:32:59.479Z,17.23
2019-05-18T05:33:59.420Z,17.77
2019-05-18T05:34:59.408Z,18.47
2019-05-18T05:35:59.398Z,18.55
2019-05-18T05:36:59.397Z,18.62
2019-05-18T05:37:59.479Z,18.84
2019-05-18T05:38:59.364Z,19.04
2019-05-18T05:39:59.353Z,19.07
2019-05-18T05:40:59.359Z,19.37
2019-05-18T05:41:59.331Z,19.54
2019-05-18T05:42:59.326Z,19.59
2019-05-18T05:43:59.366Z,19.65
2019-05-18T05:44:59.299Z,19.62
2019-05-18T05:45:59.287Z,19.41
2019-05-18T05:46:59.278Z,18.90
2019-05-18T05:47:59.264Z,18.62
2019-05-18T05:48:59.256Z,18.39
2019-05-18T05:49:59.343Z,18.03
2019-05-18T05:50:59.236Z,17.75
2019-05-18T05:51:59.223Z,17.46
2019-05-18T05:52:59.211Z,17.22
2019-05-18T05:53:59.202Z,17.08
2019-05-18T05:54:59.193Z,16.85
2019-05-18T05:55:59.231Z,16.74
2019-05-18T05:56:59.174Z,17.13
2019-05-18T05:57:59.159Z,17.59
2019-05-18T05:58:59.149Z,17.94
2019-05-18T05:59:59.140Z,18.21
2019-05-18T06:00:59.128Z,18.42
2019-05-18T06:01:59.170Z,18.49
2019-05-18T06:02:59.107Z,18.33
2019-05-18T06:03:59.096Z,18.06
2019-05-18T06:04:59.084Z,18.06
2019-05-18T06:05:59.074Z,18.36
2019-05-18T06:06:59.063Z,19.24
2019-05-18T06:07:59.107Z,19.84
2019-05-18T06:08:59.044Z,20.03
2019-05-18T06:09:59.030Z,20.15
2019-05-18T06:10:59.026Z,20.06
2019-05-18T06:11:59.010Z,20.09
2019-05-18T06:12:58.999Z,20.10
2019-05-18T06:13:59.042Z,19.95
2019-05-18T06:14:58.983Z,19.87
2019-05-18T06:15:58.967Z,19.88
2019-05-18T06:16:58.958Z,19.91
2019-05-18T06:17:58.945Z,19.67
2019-05-18T06:18:59.393Z,19.50
2019-05-18T06:19:58.923Z,19.17
2019-05-18T06:20:58.914Z,19.34
2019-05-18T06:21:58.902Z,19.38
2019-05-18T06:22:58.891Z,19.07
2019-05-18T06:23:58.880Z,18.59
2019-05-18T06:24:58.919Z,18.12
2019-05-18T06:25:58.859Z,18.43
2019-05-18T06:26:58.847Z,18.61
2019-05-18T06:27:58.836Z,18.30
2019-05-18T06:28:58.829Z,18.57
2019-05-18T06:29:58.815Z,18.62
2019-05-18T06:30:58.855Z,18.59
2019-05-18T06:31:58.795Z,18.39
2019-05-18T06:32:58.802Z,18.61
2019-05-18T06:33:58.776Z,19.13
2019-05-18T06:34:58.763Z,19.37
2019-05-18T06:35:58.755Z,19.34
2019-05-18T06:36:58.899Z,19.42
2019-05-18T06:37:58.732Z,19.42
2019-05-18T06:38:58.722Z,19.42
2019-05-18T06:39:58.709Z,19.49
2019-05-18T06:40:58.701Z,19.47
2019-05-18T06:41:58.688Z,19.52
2019-05-18T06:42:58.725Z,19.49
2019-05-18T06:43:58.666Z,19.53
2019-05-18T06:44:58.654Z,19.65
2019-05-18T06:45:58.645Z,19.68
2019-05-18T06:46:58.636Z,19.72
2019-05-18T06:47:58.622Z,19.54
2019-05-18T06:48:58.662Z,19.38
2019-05-18T06:49:58.600Z,19.38
2019-05-18T06:51:07.305Z,19.35
2019-05-18T06:51:59.675Z,19.35
2019-05-18T06:52:58.571Z,19.35
2019-05-18T06:53:58.559Z,19.53
2019-05-18T06:54:58.841Z,19.59
2019-05-18T06:55:58.538Z,19.57
2019-05-18T06:56:58.527Z,19.23
2019-05-18T06:57:58.515Z,18.72
2019-05-18T06:58:58.516Z,17.94
2019-05-18T06:59:58.501Z,18.02
2019-05-18T07:00:58.585Z,17.86
2019-05-18T07:01:58.482Z,17.65
2019-05-18T07:02:58.463Z,17.68
2019-05-18T07:03:58.452Z,18.34
2019-05-18T07:04:58.440Z,18.57
2019-05-18T07:05:58.530Z,18.61
2019-05-18T07:06:58.419Z,18.86
2019-05-18T07:07:58.412Z,18.79
2019-05-18T07:08:58.397Z,18.49
2019-05-18T07:09:58.391Z,18.20
2019-05-18T07:10:58.376Z,17.46
2019-05-18T07:11:58.417Z,16.49
2019-05-18T07:12:58.357Z,15.76
2019-05-18T07:13:58.347Z,15.40
2019-05-18T07:15:00.348Z,15.68
2019-05-18T07:15:58.326Z,17.11
2019-05-18T07:16:58.318Z,17.86
2019-05-18T07:17:58.403Z,18.36
2019-05-18T07:18:58.294Z,18.57
2019-05-18T07:19:58.282Z,18.49
2019-05-18T07:20:58.273Z,18.26
2019-05-18T07:21:58.258Z,18.37
2019-05-18T07:22:58.248Z,18.67
2019-05-18T07:23:58.287Z,18.87
2019-05-18T07:24:58.227Z,18.62
2019-05-18T07:25:58.217Z,18.26
2019-05-18T07:26:58.205Z,17.88
2019-05-18T07:27:58.193Z,17.61
2019-05-18T07:28:58.202Z,17.80
2019-05-18T07:29:58.273Z,18.42
2019-05-18T07:30:58.161Z,18.52
2019-05-18T07:31:58.153Z,18.33
2019-05-18T07:32:58.139Z,18.52
2019-05-18T07:33:58.128Z,18.64
2019-05-18T07:34:58.117Z,18.90
2019-05-18T07:35:58.159Z,19.20
2019-05-18T07:36:58.099Z,19.38
2019-05-18T07:37:58.088Z,19.45
2019-05-18T07:38:58.076Z,19.53
2019-05-18T07:39:58.067Z,19.54
2019-05-18T07:40:58.054Z,19.42
2019-05-18T07:41:58.144Z,19.14
2019-05-18T07:42:58.039Z,19.12
2019-05-18T07:43:58.023Z,19.10
2019-05-18T07:44:58.023Z,19.37
2019-05-18T07:45:58.000Z,19.50
2019-05-18T07:46:57.990Z,19.67
2019-05-18T07:47:58.031Z,19.38
2019-05-18T07:48:57.970Z,19.13
2019-05-18T07:49:57.960Z,18.87
2019-05-18T07:50:57.948Z,18.57
2019-05-18T07:51:57.939Z,18.34
2019-05-18T07:52:57.926Z,17.87
2019-05-18T07:53:57.966Z,17.54
2019-05-18T07:54:57.915Z,17.22
2019-05-18T07:55:57.895Z,16.82
2019-05-18T07:56:57.886Z,16.41
2019-05-18T07:57:57.876Z,16.32
2019-05-18T07:58:57.864Z,16.19
2019-05-18T07:59:57.901Z,16.11
2019-05-18T08:00:57.842Z,15.96
2019-05-18T08:01:57.830Z,15.99
2019-05-18T08:02:57.820Z,16.07
2019-05-18T08:03:57.809Z,16.16
2019-05-18T08:04:57.799Z,16.64
2019-05-18T08:05:57.838Z,16.99
2019-05-18T08:06:57.776Z,17.53
2019-05-18T08:07:57.765Z,17.70
2019-05-18T08:08:57.756Z,17.75
2019-05-18T08:09:57.745Z,17.81
2019-05-18T08:10:57.732Z,18.05
2019-05-18T08:11:57.823Z,18.40
2019-05-18T08:12:57.712Z,18.59
2019-05-18T08:13:57.700Z,18.91
2019-05-18T08:14:57.693Z,19.24
2019-05-18T08:15:57.680Z,19.57
2019-05-18T08:16:57.670Z,19.72
2019-05-18T08:17:57.712Z,19.84
2019-05-18T08:18:58.278Z,20.00
2019-05-18T08:19:57.639Z,19.71
2019-05-18T08:20:57.624Z,19.45
2019-05-18T08:21:57.617Z,19.45
2019-05-18T08:22:57.607Z,19.41
2019-05-18T08:23:57.644Z,19.46
2019-05-18T08:24:57.585Z,19.46
2019-05-18T08:25:57.576Z,19.30
2019-05-18T08:26:57.564Z,19.30
2019-05-18T08:27:57.551Z,19.12
2019-05-18T08:28:57.556Z,18.67
2019-05-18T08:29:57.580Z,18.64
2019-05-18T08:30:57.580Z,18.57
2019-05-18T08:31:57.508Z,18.79
2019-05-18T08:32:57.498Z,19.37
2019-05-18T08:33:57.487Z,19.90
2019-05-18T08:34:57.475Z,20.30
2019-05-18T08:35:57.548Z,20.31
2019-05-18T08:36:57.457Z,20.23
2019-05-18T08:37:57.445Z,20.03
2019-05-18T08:38:57.437Z,19.87
2019-05-18T08:39:57.423Z,19.80
2019-05-18T08:40:57.419Z,19.69
2019-05-18T08:41:57.502Z,19.80
2019-05-18T08:42:57.391Z,19.90
2019-05-18T08:43:57.381Z,19.98
2019-05-18T08:44:57.371Z,20.18
2019-05-18T08:45:57.357Z,20.12
2019-05-18T08:46:57.347Z,19.93
2019-05-18T08:47:57.430Z,19.90
2019-05-18T08:48:57.330Z,19.93
2019-05-18T08:49:57.315Z,19.93
2019-05-18T08:50:57.306Z,19.86
2019-05-18T08:52:07.838Z,19.90
2019-05-18T08:52:58.481Z,19.78
2019-05-18T08:53:57.274Z,19.78
2019-05-18T08:54:57.332Z,20.03
2019-05-18T08:55:57.251Z,20.18
2019-05-18T08:56:57.241Z,20.25
2019-05-18T08:57:57.228Z,20.46
2019-05-18T08:58:57.322Z,20.53
2019-05-18T08:59:57.208Z,20.55
2019-05-18T09:00:57.196Z,20.45
2019-05-18T09:01:57.189Z,20.52
2019-05-18T09:02:57.175Z,20.35
2019-05-18T09:03:57.167Z,20.33
2019-05-18T09:04:57.208Z,20.35
2019-05-18T09:05:57.142Z,20.31
2019-05-18T09:06:57.132Z,20.05
2019-05-18T09:07:57.122Z,20.09
2019-05-18T09:08:57.112Z,19.94
2019-05-18T09:09:57.108Z,19.69
2019-05-18T09:10:57.141Z,19.53
2019-05-18T09:11:57.081Z,19.45
2019-05-18T09:12:57.068Z,19.30
2019-05-18T09:13:57.061Z,19.17
2019-05-18T09:14:57.047Z,18.92
2019-05-18T09:15:57.034Z,18.72
2019-05-18T09:16:57.125Z,18.43
2019-05-18T09:17:57.015Z,18.33
2019-05-18T09:18:57.007Z,18.06
2019-05-18T09:19:56.993Z,17.81
2019-05-18T09:20:56.985Z,17.63
2019-05-18T09:21:56.970Z,17.38
2019-05-18T09:22:57.009Z,17.36
2019-05-18T09:23:56.950Z,17.38
2019-05-18T09:24:56.942Z,17.22
2019-05-18T09:25:56.930Z,17.36
2019-05-18T09:26:56.940Z,17.32
2019-05-18T09:27:56.907Z,17.43
2019-05-18T09:28:56.946Z,17.32
2019-05-18T09:29:56.885Z,17.26
2019-05-18T09:30:56.875Z,16.99
2019-05-18T09:31:56.863Z,16.82
2019-05-18T09:32:56.853Z,16.59
2019-05-18T09:33:56.848Z,16.39
2019-05-18T09:34:56.889Z,16.16
2019-05-18T09:35:56.821Z,16.01
2019-05-18T09:36:56.811Z,15.68
2019-05-18T09:37:56.799Z,15.57
2019-05-18T09:38:56.787Z,15.32
2019-05-18T09:39:56.779Z,15.18
2019-05-18T09:40:56.820Z,15.08
2019-05-18T09:41:56.755Z,15.02
2019-05-18T09:42:56.743Z,14.85
2019-05-18T09:43:56.738Z,14.85
2019-05-18T09:44:56.728Z,14.72
2019-05-18T09:45:56.763Z,14.72
2019-05-18T09:46:56.751Z,14.62
2019-05-18T09:47:56.693Z,14.52
2019-05-18T09:48:56.680Z,14.49
2019-05-18T09:49:56.670Z,14.49
2019-05-18T09:50:56.658Z,14.39
2019-05-18T09:51:56.648Z,14.38
2019-05-18T09:52:56.687Z,14.31
2019-05-18T09:53:56.624Z,14.27
2019-05-18T09:54:56.618Z,14.17
2019-05-18T09:55:56.608Z,14.09
2019-05-18T09:56:56.592Z,14.03
2019-05-18T09:57:56.582Z,13.90
2019-05-18T09:58:56.673Z,13.91
2019-05-18T09:59:56.562Z,13.90
2019-05-18T10:00:56.551Z,13.87
2019-05-18T10:01:56.536Z,13.76
2019-05-18T10:02:56.534Z,13.80
2019-05-18T10:03:56.521Z,13.69
2019-05-18T10:04:56.562Z,13.73
2019-05-18T10:05:56.500Z,13.66
2019-05-18T10:06:56.487Z,13.69
2019-05-18T10:07:56.473Z,13.72
2019-05-18T10:08:56.461Z,13.75
2019-05-18T10:09:56.451Z,13.79
2019-05-18T10:10:56.492Z,13.79
2019-05-18T10:11:56.429Z,13.75
2019-05-18T10:12:56.423Z,13.86
2019-05-18T10:13:56.408Z,13.91
2019-05-18T10:14:56.399Z,13.90
2019-05-18T10:15:56.386Z,13.86
2019-05-18T10:16:56.425Z,13.87
2019-05-18T10:17:56.364Z,13.97
2019-05-18T10:18:56.353Z,13.90
2019-05-18T10:19:56.344Z,14.06
2019-05-18T10:20:56.335Z,13.97
2019-05-18T10:21:56.319Z,14.01
2019-05-18T10:23:11.960Z,14.01
2019-05-18T10:24:21.115Z,14.14
2019-05-18T10:25:21.107Z,14.12
2019-05-18T10:26:21.092Z,14.28
2019-05-18T10:27:21.084Z,14.28
2019-05-18T10:28:21.121Z,14.37
2019-05-18T10:29:21.062Z,14.37
2019-05-18T10:30:21.053Z,14.47
2019-05-18T10:31:21.045Z,14.52
2019-05-18T10:32:21.032Z,14.52
2019-05-18T10:33:21.020Z,14.72
2019-05-18T10:34:21.109Z,14.80
2019-05-18T10:35:20.995Z,15.05
2019-05-18T10:36:20.985Z,15.42
2019-05-18T10:37:20.978Z,15.96
2019-05-18T10:38:20.968Z,16.29
2019-05-18T10:39:20.955Z,16.51
2019-05-18T10:40:20.994Z,16.72
2019-05-18T10:41:20.933Z,17.22
2019-05-18T10:42:20.928Z,17.87
2019-05-18T10:43:20.918Z,18.23
2019-05-18T10:44:20.899Z,18.27
2019-05-18T10:45:20.890Z,18.26
2019-05-18T10:46:20.931Z,18.34
2019-05-18T10:47:20.867Z,18.20
2019-05-18T10:48:20.856Z,17.81
2019-05-18T10:49:20.850Z,17.30
2019-05-18T10:50:20.837Z,16.84
2019-05-18T10:51:20.826Z,16.48
2019-05-18T10:52:20.889Z,16.52
2019-05-18T10:53:28.659Z,17.62
2019-05-18T10:54:45.607Z,18.47
2019-05-18T10:55:45.596Z,19.01
2019-05-18T10:56:45.584Z,19.24
2019-05-18T10:57:45.675Z,19.30
2019-05-18T10:58:45.564Z,19.39
2019-05-18T10:59:45.555Z,19.47
2019-05-18T11:00:45.542Z,19.53
2019-05-18T11:01:45.534Z,19.69
2019-05-18T11:02:45.523Z,19.91
2019-05-18T11:03:45.561Z,19.88
2019-05-18T11:04:45.500Z,19.56
2019-05-18T11:05:45.490Z,19.42
2019-05-18T11:06:45.485Z,19.45
2019-05-18T11:07:45.469Z,19.80
2019-05-18T11:08:45.462Z,20.09
2019-05-18T11:09:45.551Z,20.28
2019-05-18T11:10:45.435Z,20.10
2019-05-18T11:11:45.427Z,19.80
2019-05-18T11:12:45.414Z,19.23
2019-05-18T11:13:45.406Z,19.19
2019-05-18T11:14:45.398Z,19.28
2019-05-18T11:15:45.482Z,19.35
2019-05-18T11:16:45.371Z,19.80
2019-05-18T11:17:45.360Z,20.08
2019-05-18T11:18:45.351Z,20.23
2019-05-18T11:19:45.339Z,20.42
2019-05-18T11:20:45.327Z,20.60
2019-05-18T11:21:45.372Z,20.73
2019-05-18T11:22:45.309Z,20.79
2019-05-18T11:23:47.983Z,20.94
2019-05-18T11:24:45.284Z,20.92
2019-05-18T11:25:45.275Z,21.07
2019-05-18T11:26:45.265Z,21.21
2019-05-18T11:27:45.305Z,21.38
2019-05-18T11:28:45.245Z,21.39
2019-05-18T11:29:45.238Z,21.35
2019-05-18T11:30:45.221Z,21.38
2019-05-18T11:31:45.207Z,21.36
2019-05-18T11:32:45.200Z,21.36
2019-05-18T11:33:45.240Z,21.24
2019-05-18T11:34:45.179Z,20.92
2019-05-18T11:35:45.167Z,20.49
2019-05-18T11:36:45.158Z,20.21
2019-05-18T11:37:45.145Z,19.94
2019-05-18T11:38:45.136Z,19.84
2019-05-18T11:39:45.180Z,19.80
2019-05-18T11:40:45.112Z,19.78
2019-05-18T11:41:45.101Z,19.75
2019-05-18T11:42:45.090Z,19.76
2019-05-18T11:43:45.080Z,19.76
2019-05-18T11:44:45.071Z,19.84
2019-05-18T11:45:45.156Z,19.83
2019-05-18T11:46:45.046Z,19.79
2019-05-18T11:47:45.036Z,19.84
2019-05-18T11:48:45.022Z,19.78
2019-05-18T11:49:45.013Z,19.79
2019-05-18T11:50:45.000Z,19.84
2019-05-18T11:51:45.041Z,19.86
2019-05-18T11:52:44.981Z,19.90
2019-05-18T11:53:57.498Z,19.87
2019-05-18T11:55:09.772Z,19.60
2019-05-18T11:56:09.763Z,19.46
2019-05-18T11:57:09.829Z,19.32
2019-05-18T11:58:09.739Z,19.17
2019-05-18T11:59:09.731Z,19.02
2019-05-18T12:00:09.721Z,18.79
2019-05-18T12:01:09.711Z,18.76
2019-05-18T12:02:09.696Z,18.62
2019-05-18T12:03:09.736Z,18.67
2019-05-18T12:04:09.673Z,18.61
2019-05-18T12:05:09.667Z,18.58
2019-05-18T12:06:09.652Z,18.33
2019-05-18T12:07:09.676Z,18.18
2019-05-18T12:08:09.632Z,18.05
2019-05-18T12:09:09.719Z,18.08
2019-05-18T12:10:09.612Z,18.05
2019-05-18T12:11:09.597Z,17.99
2019-05-18T12:12:09.589Z,17.84
2019-05-18T12:13:09.575Z,17.86
2019-05-18T12:14:09.566Z,17.90
2019-05-18T12:15:09.605Z,17.99
2019-05-18T12:16:09.543Z,17.93
2019-05-18T12:17:09.532Z,18.09
2019-05-18T12:18:09.521Z,18.11
2019-05-18T12:19:09.511Z,18.06
2019-05-18T12:20:09.499Z,18.03
2019-05-18T12:21:09.587Z,17.88
2019-05-18T12:22:09.483Z,17.93
2019-05-18T12:23:09.468Z,18.02
2019-05-18T12:24:15.385Z,18.05
2019-05-18T12:25:34.260Z,17.93
2019-05-18T12:26:34.338Z,17.96
2019-05-18T12:27:34.236Z,17.96
2019-05-18T12:28:34.225Z,17.90
2019-05-18T12:29:34.218Z,17.88
2019-05-18T12:30:34.211Z,17.93
2019-05-18T12:31:34.193Z,17.94
2019-05-18T12:32:34.236Z,17.96
2019-05-18T12:33:34.180Z,18.16
2019-05-18T12:34:34.169Z,18.27
2019-05-18T12:35:34.154Z,18.43
2019-05-18T12:36:34.155Z,18.59
2019-05-18T12:37:34.128Z,18.76
2019-05-18T12:38:34.169Z,18.76
2019-05-18T12:39:34.108Z,18.74
2019-05-18T12:40:34.101Z,18.73
2019-05-18T12:41:34.085Z,18.73
2019-05-18T12:42:34.076Z,18.74
2019-05-18T12:43:34.065Z,18.84
2019-05-18T12:44:34.152Z,18.77
2019-05-18T12:45:34.052Z,19.02
2019-05-18T12:46:34.051Z,19.10
2019-05-18T12:47:34.022Z,19.28
2019-05-18T12:48:34.012Z,19.39
2019-05-18T12:49:34.000Z,19.56
2019-05-18T12:50:34.046Z,19.83
2019-05-18T12:51:33.980Z,19.98
2019-05-18T12:52:33.968Z,20.00
2019-05-18T12:53:33.972Z,20.16
2019-05-18T12:54:45.594Z,20.24
2019-05-18T12:55:58.801Z,20.18
2019-05-18T12:56:58.791Z,20.30
2019-05-18T12:57:58.775Z,20.27
2019-05-18T12:58:58.777Z,20.24